LRBS/BBU METAR and TAF weather

Enter ICAO airport designator
Station Type Date Time Source
LRBS METAR 2019/10/23 14:00 UTC NOAA

LRBS 231400Z VRB01KT CAVOK 23/12 Q1021 NOSIG


Station Type Date Time Source
LRBS Decoded METAR 2019/10/23 14:00 UTC NOAA

Bucuresti / Imh, Romania (LRBS) 44-30N 026-08E 91M
Oct 23, 2019 - 10:00 AM EDT / 2019.10.23 1400 UTC
Wind: Variable at 1 MPH (1 KT):0
Visibility: greater than 7 mile(s):0
Temperature: 73 F (23 C)
Dew Point: 53 F (12 C)
Relative Humidity: 49%
Pressure (altimeter): 30.15 in. Hg (1021 hPa)
ob: LRBS 231400Z VRB01KT CAVOK 23/12 Q1021 NOSIG
cycle: 14

Station Type Date Time Source
LRBS TAF 2019/10/23 12:33 UTC NOAA

TAF TAF LRBS 231100Z 2312/2412 VRB04KT CAVOK
BECMG 2317/2319 5000 BR
BECMG 2321/2323 1500 BR
BECMG 2323/2401 0600 FG BKN002
TEMPO 2401/2406 0150 FG VV001
BECMG 2407/2409 3000 BR BKN005
BECMG 2409/2411 CAVOK

Example: see airport list